Time;durP1;ratioP1;P1;durP2;ratioP2;P2;SDS_P1;SDS_P2;PMS_P1;PMS_P2;Temp;Humidity;BMP_temperature;BMP_pressure;BME280_temperature;BME280_humidity;BME280_pressure;Samples;Min_cycle;Max_cycle;Signal;HPM_P1;HPM_P2
2022/08/04 00:00:53;;;;;;;;;;;24.90;99.90;;;;;;5133083;27;19937;-80
2022/08/04 00:03:21;;;;;;;;;;;24.90;99.90;;;;;;5116747;27;19919;-80
2022/08/04 00:05:52;;;;;;;;;;;24.90;99.90;;;;;;5106951;27;20291;-80
2022/08/04 00:08:21;;;;;;;;;;;24.80;99.90;;;;;;5118985;27;20311;-79
2022/08/04 00:10:48;;;;;;;;;;;24.80;99.90;;;;;;5133528;27;19911;-79
2022/08/04 00:13:15;;;;;;;;;;;24.80;99.90;;;;;;5132935;27;20010;-80
2022/08/04 00:15:41;;;;;;;;;;;24.80;99.90;;;;;;5132506;27;19908;-79
2022/08/04 00:18:07;;;;;;;;;;;24.70;99.90;;;;;;5138280;27;20366;-80
2022/08/04 00:20:36;;;;;;;;;;;24.60;99.90;;;;;;5137555;27;19915;-80
2022/08/04 00:23:03;;;;;;;;;;;24.60;99.90;;;;;;5136840;27;20335;-81
2022/08/04 00:25:29;;;;;;;;;;;24.50;99.90;;;;;;5136862;27;19907;-80
2022/08/04 00:27:54;;;;;;;;;;;24.50;99.90;;;;;;5137048;27;19925;-80
2022/08/04 00:30:20;;;;;;;;;;;24.50;99.90;;;;;;5136462;27;19918;-81
2022/08/04 00:32:46;;;;;;;;;;;24.40;99.90;;;;;;5135941;28;19919;-81
2022/08/04 00:35:12;;;;;;;;;;;24.30;99.90;;;;;;5135642;28;19912;-80
2022/08/04 00:37:38;;;;;;;;;;;24.30;99.90;;;;;;5135738;28;19919;-81
2022/08/04 00:40:21;;;;;;;;;;;24.30;99.90;;;;;;5135299;28;19907;-81
2022/08/04 00:42:50;;;;;;;;;;;24.20;99.90;;;;;;5135548;28;19963;-81
2022/08/04 00:45:16;;;;;;;;;;;24.10;99.90;;;;;;5135610;28;19907;-80
2022/08/04 00:47:41;;;;;;;;;;;24.10;99.90;;;;;;5135226;28;19921;-79
2022/08/04 00:50:08;;;;;;;;;;;24.00;99.90;;;;;;5134918;28;20413;-81
2022/08/04 00:52:48;;;;;;;;;;;24.00;99.90;;;;;;5134745;28;19907;-81
2022/08/04 00:55:17;;;;;;;;;;;24.00;99.90;;;;;;5134587;28;20003;-80
2022/08/04 00:58:01;;;;;;;;;;;23.90;99.90;;;;;;5134437;28;19998;-80
2022/08/04 01:00:31;;;;;;;;;;;23.90;99.90;;;;;;5134484;28;19907;-81
2022/08/04 01:03:24;;;;;;;;;;;23.90;99.90;;;;;;5134319;28;20376;-81
2022/08/04 01:05:49;;;;;;;;;;;23.80;99.90;;;;;;5110574;28;20400;-81
2022/08/04 01:08:24;;;;;;;;;;;23.80;99.90;;;;;;5134178;28;19908;-81
2022/08/04 01:10:56;;;;;;;;;;;23.80;99.90;;;;;;5133843;28;20405;-80
2022/08/04 01:13:39;;;;;;;;;;;23.80;99.90;;;;;;5133843;28;20000;-81
2022/08/04 01:16:06;;;;;;;;;;;23.80;99.90;;;;;;5134346;28;19907;-80
2022/08/04 01:18:34;;;;;;;;;;;23.80;99.90;;;;;;5133375;28;19938;-81
2022/08/04 01:21:06;;;;;;;;;;;23.80;99.90;;;;;;5135993;27;20427;-79
2022/08/04 01:23:50;;;;;;;;;;;23.70;99.90;;;;;;5136924;27;20363;-81
2022/08/04 01:26:19;;;;;;;;;;;23.70;99.90;;;;;;5137240;27;20006;-81
2022/08/04 01:29:03;;;;;;;;;;;23.60;99.90;;;;;;5137049;27;19911;-80
2022/08/04 01:31:48;;;;;;;;;;;23.60;99.90;;;;;;5137179;27;19914;-79
2022/08/04 01:34:15;;;;;;;;;;;23.60;99.90;;;;;;5136395;27;20341;-80
2022/08/04 01:36:46;;;;;;;;;;;23.50;99.90;;;;;;5136317;27;19945;-80
2022/08/04 01:41:58;;;;;;;;;;;23.40;99.90;;;;;;5137986;27;19938;-80
2022/08/04 01:44:26;;;;;;;;;;;23.40;99.90;;;;;;5136306;27;19907;-80
2022/08/04 01:46:52;;;;;;;;;;;23.40;99.90;;;;;;5135851;27;19923;-79
2022/08/04 01:49:19;;;;;;;;;;;23.30;99.90;;;;;;5135621;27;19912;-80
2022/08/04 01:51:46;;;;;;;;;;;23.30;99.90;;;;;;5135078;27;19908;-79
2022/08/04 01:54:14;;;;;;;;;;;23.30;99.90;;;;;;5135162;27;19922;-80
2022/08/04 01:56:40;;;;;;;;;;;23.30;99.90;;;;;;5134784;27;19907;-80
2022/08/04 01:59:06;;;;;;;;;;;23.30;99.90;;;;;;5134919;27;19907;-79
2022/08/04 02:01:35;;;;;;;;;;;23.20;99.90;;;;;;5134784;27;19912;-79
2022/08/04 02:04:01;;;;;;;;;;;23.20;99.90;;;;;;5135084;27;19929;-79
2022/08/04 02:06:30;;;;;;;;;;;23.20;99.90;;;;;;5134782;27;19914;-80
2022/08/04 02:09:02;;;;;;;;;;;23.20;99.90;;;;;;5134763;27;19907;-79
2022/08/04 02:11:31;;;;;;;;;;;23.20;99.90;;;;;;5134676;27;19911;-79
2022/08/04 02:13:56;;;;;;;;;;;23.10;99.90;;;;;;5134604;27;19976;-80
2022/08/04 02:16:22;;;;;;;;;;;23.10;99.90;;;;;;5134818;27;19907;-79
2022/08/04 02:18:50;;;;;;;;;;;23.10;99.90;;;;;;5134584;27;19911;-80
2022/08/04 02:21:18;;;;;;;;;;;23.10;99.90;;;;;;5134593;27;19964;-79
2022/08/04 02:23:45;;;;;;;;;;;23.10;99.90;;;;;;5134614;27;19972;-79
2022/08/04 02:26:16;;;;;;;;;;;23.10;99.90;;;;;;5134665;27;19908;-79
2022/08/04 02:28:55;;;;;;;;;;;23.10;99.90;;;;;;5134305;27;19914;-79
2022/08/04 02:31:27;;;;;;;;;;;23.00;99.90;;;;;;5134077;27;19915;-80
2022/08/04 02:34:05;;;;;;;;;;;23.10;99.90;;;;;;5134326;27;20262;-79
2022/08/04 02:36:34;;;;;;;;;;;23.00;99.90;;;;;;5134237;27;19914;-79
2022/08/04 02:39:01;;;;;;;;;;;23.00;99.90;;;;;;5133964;27;19915;-80
2022/08/04 02:41:27;;;;;;;;;;;23.00;99.90;;;;;;5134328;27;19907;-79
2022/08/04 02:43:57;;;;;;;;;;;23.00;99.90;;;;;;5134053;27;20431;-79
2022/08/04 02:46:23;;;;;;;;;;;23.00;99.90;;;;;;5133782;27;19916;-80
2022/08/04 02:48:50;;;;;;;;;;;23.00;99.90;;;;;;5134156;27;20366;-79
2022/08/04 02:51:19;;;;;;;;;;;23.00;99.90;;;;;;5133971;27;19911;-79
2022/08/04 02:53:45;;;;;;;;;;;22.90;99.90;;;;;;5134015;27;19911;-79
2022/08/04 02:56:13;;;;;;;;;;;22.90;99.90;;;;;;5136712;27;19907;-81
2022/08/04 02:58:41;;;;;;;;;;;22.90;99.90;;;;;;5139057;27;19908;-80
2022/08/04 03:01:07;;;;;;;;;;;22.90;99.90;;;;;;5138558;27;20357;-81
2022/08/04 03:03:38;;;;;;;;;;;22.80;99.90;;;;;;5137900;27;19908;-80
2022/08/04 03:06:10;;;;;;;;;;;22.90;99.90;;;;;;5137622;27;19908;-81
2022/08/04 03:08:36;;;;;;;;;;;22.80;99.90;;;;;;5137615;27;19907;-80
2022/08/04 03:11:01;;;;;;;;;;;22.80;99.90;;;;;;5137759;27;19935;-80
2022/08/04 03:13:27;;;;;;;;;;;22.80;99.90;;;;;;5137335;27;19911;-81
2022/08/04 03:15:54;;;;;;;;;;;22.70;99.90;;;;;;5137365;27;19908;-81
2022/08/04 03:18:20;;;;;;;;;;;22.70;99.90;;;;;;5136706;27;20288;-80
2022/08/04 03:20:48;;;;;;;;;;;22.70;99.90;;;;;;5136114;27;20374;-79
2022/08/04 03:23:33;;;;;;;;;;;22.70;99.90;;;;;;5136408;27;19908;-80
2022/08/04 03:26:34;;;;;;;;;;;22.70;99.90;;;;;;5136724;27;19907;-80
2022/08/04 03:28:59;;;;;;;;;;;22.60;99.90;;;;;;5076589;28;19915;-79
2022/08/04 03:31:44;;;;;;;;;;;22.60;99.90;;;;;;5110302;27;19916;-80
2022/08/04 03:34:13;;;;;;;;;;;22.60;99.90;;;;;;5118959;27;19912;-80
2022/08/04 03:36:41;;;;;;;;;;;22.60;99.90;;;;;;5114959;27;20348;-79
2022/08/04 03:39:07;;;;;;;;;;;22.60;99.90;;;;;;5114169;28;19977;-80
2022/08/04 03:41:32;;;;;;;;;;;22.60;99.90;;;;;;5114102;28;19912;-79
2022/08/04 03:44:23;;;;;;;;;;;22.60;99.90;;;;;;5113427;28;19981;-79
2022/08/04 03:47:09;;;;;;;;;;;22.60;99.90;;;;;;5114013;28;19915;-79
2022/08/04 03:49:44;;;;;;;;;;;22.60;99.90;;;;;;5113365;28;20321;-80
2022/08/04 03:55:37;;;;;;;;;;;22.60;99.90;;;;;;5114938;28;20378;-79
2022/08/04 03:58:02;;;;;;;;;;;22.60;99.90;;;;;;5113509;28;19998;-79
2022/08/04 04:00:37;;;;;;;;;;;22.60;99.90;;;;;;5113856;27;19943;-80
2022/08/04 04:03:12;;;;;;;;;;;22.60;99.90;;;;;;5115479;27;19957;-80
2022/08/04 04:05:47;;;;;;;;;;;22.60;99.90;;;;;;5109631;27;19955;-80
2022/08/04 04:08:28;;;;;;;;;;;22.60;99.90;;;;;;5124938;27;19908;-79
2022/08/04 04:10:57;;;;;;;;;;;22.60;99.90;;;;;;5133071;27;19911;-80
2022/08/04 04:13:25;;;;;;;;;;;22.60;99.90;;;;;;5133432;27;19944;-80
2022/08/04 04:16:24;;;;;;;;;;;22.60;99.90;;;;;;5134217;27;19930;-80
2022/08/04 04:19:08;;;;;;;;;;;22.60;99.90;;;;;;5100163;27;19908;-80
2022/08/04 04:21:40;;;;;;;;;;;22.60;99.90;;;;;;5134267;27;19929;-79
2022/08/04 04:24:24;;;;;;;;;;;22.70;99.90;;;;;;5134621;27;19907;-79
2022/08/04 04:26:56;;;;;;;;;;;22.70;99.90;;;;;;5133821;27;19947;-79
2022/08/04 04:29:21;;;;;;;;;;;22.70;99.90;;;;;;5133905;27;20366;-79
2022/08/04 04:31:50;;;;;;;;;;;22.70;99.90;;;;;;5133622;27;19922;-80
2022/08/04 04:34:16;;;;;;;;;;;22.80;99.90;;;;;;5133830;28;19908;-79
2022/08/04 04:37:03;;;;;;;;;;;22.80;99.90;;;;;;5133944;28;19907;-80
2022/08/04 04:39:38;;;;;;;;;;;22.80;99.90;;;;;;5133950;28;19908;-79
2022/08/04 04:42:04;;;;;;;;;;;22.90;99.90;;;;;;5133667;28;20002;-79
2022/08/04 04:44:41;;;;;;;;;;;22.90;99.90;;;;;;5133473;28;20370;-79
2022/08/04 04:47:15;;;;;;;;;;;23.00;99.90;;;;;;5123469;28;19926;-80
2022/08/04 04:49:56;;;;;;;;;;;23.00;99.90;;;;;;5113798;28;19908;-79
2022/08/04 04:52:30;;;;;;;;;;;23.00;99.90;;;;;;5120834;28;19936;-80
2022/08/04 04:55:03;;;;;;;;;;;23.10;99.90;;;;;;5115802;28;20422;-79
2022/08/04 04:57:33;;;;;;;;;;;23.10;99.90;;;;;;5117279;28;19947;-80
2022/08/04 05:00:01;;;;;;;;;;;23.10;99.90;;;;;;5117165;28;19908;-80
2022/08/04 05:02:35;;;;;;;;;;;23.20;99.90;;;;;;5117082;28;19970;-79
2022/08/04 05:05:01;;;;;;;;;;;23.10;99.90;;;;;;5116367;28;19912;-80
2022/08/04 05:07:26;;;;;;;;;;;23.20;99.90;;;;;;5116956;28;19916;-78
2022/08/04 05:10:11;;;;;;;;;;;23.30;99.90;;;;;;5121395;27;19965;-80
2022/08/04 05:12:42;;;;;;;;;;;23.30;99.90;;;;;;5161714;22;20045;-77
2022/08/04 05:15:09;;;;;;;;;;;23.40;99.90;;;;;;5110722;28;19911;-77
2022/08/04 05:17:40;;;;;;;;;;;23.50;99.90;;;;;;5111384;28;19908;-77
2022/08/04 05:20:09;;;;;;;;;;;23.50;99.90;;;;;;5089965;28;19918;-77
2022/08/04 05:22:50;;;;;;;;;;;23.50;99.90;;;;;;5094494;28;20003;-77
2022/08/04 05:25:18;;;;;;;;;;;23.60;99.90;;;;;;5094227;28;19909;-77
2022/08/04 05:27:45;;;;;;;;;;;23.70;99.90;;;;;;5094072;28;19908;-77
2022/08/04 05:30:11;;;;;;;;;;;23.80;99.90;;;;;;5094463;28;20355;-77
2022/08/04 05:32:43;;;;;;;;;;;23.90;99.90;;;;;;5094216;28;19965;-77
2022/08/04 05:35:11;;;;;;;;;;;23.90;99.90;;;;;;5094663;28;20351;-77
2022/08/04 05:37:38;;;;;;;;;;;24.00;99.90;;;;;;5094184;28;20289;-78
2022/08/04 05:40:05;;;;;;;;;;;24.10;99.90;;;;;;5094006;28;19909;-77
2022/08/04 05:42:31;;;;;;;;;;;24.20;99.90;;;;;;5093927;28;19908;-77
2022/08/04 05:44:58;;;;;;;;;;;24.30;99.90;;;;;;5094079;28;19934;-78
2022/08/04 05:47:24;;;;;;;;;;;24.30;99.90;;;;;;5093840;28;19908;-78
2022/08/04 05:49:50;;;;;;;;;;;24.40;99.90;;;;;;5093820;28;19908;-78
2022/08/04 05:52:16;;;;;;;;;;;24.40;99.90;;;;;;5093746;28;20294;-78
2022/08/04 05:54:42;;;;;;;;;;;24.40;99.90;;;;;;5093720;28;19908;-78
2022/08/04 05:57:08;;;;;;;;;;;24.50;99.90;;;;;;5093442;28;19915;-78
2022/08/04 05:59:36;;;;;;;;;;;24.50;99.90;;;;;;5093882;28;19908;-78
2022/08/04 06:02:03;;;;;;;;;;;24.60;99.90;;;;;;5094164;28;19955;-74
2022/08/04 06:04:38;;;;;;;;;;;24.70;99.90;;;;;;5093521;28;20390;-74
2022/08/04 06:07:05;;;;;;;;;;;24.80;99.90;;;;;;5092549;28;19989;-75
2022/08/04 06:09:30;;;;;;;;;;;25.00;99.90;;;;;;5093267;28;19912;-74
2022/08/04 06:11:59;;;;;;;;;;;25.00;99.90;;;;;;5093938;28;19920;-74
2022/08/04 06:14:25;;;;;;;;;;;25.10;99.90;;;;;;5093311;28;19912;-74
2022/08/04 06:16:51;;;;;;;;;;;25.30;99.90;;;;;;5094071;28;19915;-76
2022/08/04 06:19:18;;;;;;;;;;;25.40;99.90;;;;;;5093944;28;19908;-79
2022/08/04 06:21:47;;;;;;;;;;;25.50;99.90;;;;;;5093419;28;19961;-76
2022/08/04 06:24:15;;;;;;;;;;;25.60;99.90;;;;;;5092281;28;19951;-76
2022/08/04 06:26:42;;;;;;;;;;;25.70;99.90;;;;;;5092706;28;19908;-76
2022/08/04 06:29:16;;;;;;;;;;;25.90;99.90;;;;;;5092318;28;19954;-77
2022/08/04 06:31:44;;;;;;;;;;;25.90;99.90;;;;;;5092934;28;19931;-75
2022/08/04 06:34:11;;;;;;;;;;;26.00;99.90;;;;;;5092633;28;19934;-76
2022/08/04 06:36:39;;;;;;;;;;;26.10;99.90;;;;;;5092653;28;19912;-76
2022/08/04 06:39:06;;;;;;;;;;;26.20;99.90;;;;;;5092812;28;19915;-75
2022/08/04 06:41:32;;;;;;;;;;;26.30;99.90;;;;;;5092839;28;19908;-75
2022/08/04 06:44:06;;;;;;;;;;;26.40;99.90;;;;;;5092890;28;19908;-77
2022/08/04 06:46:33;;;;;;;;;;;26.50;99.90;;;;;;5092643;28;19916;-77
2022/08/04 06:48:58;;;;;;;;;;;26.60;99.90;;;;;;5093188;28;19963;-77
2022/08/04 06:51:24;;;;;;;;;;;26.60;99.90;;;;;;5093009;28;19959;-77
2022/08/04 06:53:50;;;;;;;;;;;26.70;99.90;;;;;;5092786;28;19915;-77
2022/08/04 06:56:17;;;;;;;;;;;26.80;99.90;;;;;;5092376;28;20363;-77
2022/08/04 06:58:43;;;;;;;;;;;27.00;99.90;;;;;;5092984;28;20267;-77
2022/08/04 07:01:10;;;;;;;;;;;27.10;99.90;;;;;;5092412;28;19959;-77
2022/08/04 07:03:36;;;;;;;;;;;27.20;99.90;;;;;;5092500;28;19908;-77
2022/08/04 07:06:02;;;;;;;;;;;27.20;99.90;;;;;;5092358;28;19908;-77
2022/08/04 07:08:27;;;;;;;;;;;27.30;99.90;;;;;;5089226;28;19913;-77
2022/08/04 07:10:53;;;;;;;;;;;27.50;99.90;;;;;;5092119;28;19943;-76
2022/08/04 07:13:19;;;;;;;;;;;27.60;99.90;;;;;;5090889;28;19924;-77
2022/08/04 07:15:46;;;;;;;;;;;27.70;99.90;;;;;;5084781;28;19912;-77
2022/08/04 07:18:11;;;;;;;;;;;27.90;99.90;;;;;;5090887;28;20366;-77
2022/08/04 07:20:44;;;;;;;;;;;27.90;99.90;;;;;;5092265;28;19914;-77
2022/08/04 07:23:12;;;;;;;;;;;28.00;99.90;;;;;;5091978;28;19955;-77
2022/08/04 07:25:38;;;;;;;;;;;28.00;99.90;;;;;;5091916;28;19908;-77
2022/08/04 07:28:04;;;;;;;;;;;28.00;99.90;;;;;;5108895;28;19915;-77
2022/08/04 07:30:30;;;;;;;;;;;28.00;99.90;;;;;;5092546;28;19999;-78
2022/08/04 07:32:56;;;;;;;;;;;28.10;99.90;;;;;;5091943;28;19923;-77
2022/08/04 07:35:26;;;;;;;;;;;28.10;99.90;;;;;;5091900;28;19912;-77
2022/08/04 07:37:51;;;;;;;;;;;28.20;99.90;;;;;;5091649;28;19908;-77
2022/08/04 07:40:17;;;;;;;;;;;28.20;99.90;;;;;;5092094;28;20321;-77
2022/08/04 07:42:43;;;;;;;;;;;28.20;99.90;;;;;;5092086;28;19916;-78
2022/08/04 07:45:09;;;;;;;;;;;28.30;99.90;;;;;;5091779;28;19912;-78
2022/08/04 07:47:35;;;;;;;;;;;28.40;99.90;;;;;;5092506;28;19909;-77
2022/08/04 07:50:01;;;;;;;;;;;28.50;99.90;;;;;;5092522;28;19908;-77
2022/08/04 07:52:26;;;;;;;;;;;28.60;99.90;;;;;;5091945;28;20260;-77
2022/08/04 07:54:52;;;;;;;;;;;28.70;99.90;;;;;;5092937;28;19913;-77
2022/08/04 07:57:19;;;;;;;;;;;28.80;99.90;;;;;;5092423;28;19912;-77
2022/08/04 07:59:45;;;;;;;;;;;29.00;99.90;;;;;;5092410;28;19923;-73
2022/08/04 08:02:13;;;;;;;;;;;29.10;99.90;;;;;;5091177;28;19908;-77
2022/08/04 08:04:39;;;;;;;;;;;29.60;99.90;;;;;;5091235;28;19919;-77
2022/08/04 08:07:04;;;;;;;;;;;30.30;99.90;;;;;;5091131;28;20256;-77
2022/08/04 08:09:32;;;;;;;;;;;31.10;99.90;;;;;;5091301;28;19962;-77
2022/08/04 08:11:57;;;;;;;;;;;32.00;99.90;;;;;;5092630;28;20268;-77
2022/08/04 08:14:23;;;;;;;;;;;33.10;99.90;;;;;;5092192;28;19961;-78
2022/08/04 08:16:49;;;;;;;;;;;34.10;99.90;;;;;;5092091;28;20332;-78
2022/08/04 08:19:15;;;;;;;;;;;35.00;96.90;;;;;;5091042;28;20462;-77
2022/08/04 08:21:44;;;;;;;;;;;35.60;94.80;;;;;;5091210;28;19912;-77
2022/08/04 08:24:10;;;;;;;;;;;36.50;92.20;;;;;;5091190;28;19908;-78
2022/08/04 08:26:35;;;;;;;;;;;37.30;85.00;;;;;;5090802;28;19935;-77
2022/08/04 08:29:01;;;;;;;;;;;37.90;81.70;;;;;;5090750;28;19966;-77
2022/08/04 08:31:27;;;;;;;;;;;38.60;76.40;;;;;;5090799;28;19912;-77
2022/08/04 08:33:53;;;;;;;;;;;38.90;72.30;;;;;;5091473;28;20413;-78
2022/08/04 08:36:22;;;;;;;;;;;39.40;68.20;;;;;;5091026;28;19958;-81
2022/08/04 08:38:51;;;;;;;;;;;40.10;64.70;;;;;;5092644;28;19955;-79
2022/08/04 08:41:35;;;;;;;;;;;40.70;61.00;;;;;;5090997;28;19912;-78
2022/08/04 08:44:16;;;;;;;;;;;41.30;60.30;;;;;;5091382;28;20412;-77
2022/08/04 08:46:54;;;;;;;;;;;41.90;56.50;;;;;;5108496;28;19915;-78
2022/08/04 08:49:43;;;;;;;;;;;42.60;54.00;;;;;;5076858;28;20521;-78
2022/08/04 08:52:17;;;;;;;;;;;43.10;51.60;;;;;;5071678;28;20311;-79
2022/08/04 08:54:46;;;;;;;;;;;43.60;48.70;;;;;;5071094;28;19909;-78
2022/08/04 08:57:14;;;;;;;;;;;44.40;48.00;;;;;;5070161;28;19955;-77
2022/08/04 08:59:59;;;;;;;;;;;45.00;46.10;;;;;;5070566;28;19909;-77
2022/08/04 09:02:30;;;;;;;;;;;45.60;45.80;;;;;;5070356;28;20317;-78
2022/08/04 09:04:56;;;;;;;;;;;46.10;44.70;;;;;;5084194;28;19908;-78
2022/08/04 09:08:00;;;;;;;;;;;46.80;43.90;;;;;;5090509;28;19908;-77
2022/08/04 09:10:26;;;;;;;;;;;46.10;41.70;;;;;;4992675;28;19920;-78
2022/08/04 09:12:55;;;;;;;;;;;45.90;42.40;;;;;;5005735;28;19918;-78
2022/08/04 09:15:39;;;;;;;;;;;45.70;40.60;;;;;;5027469;28;20283;-78
2022/08/04 09:18:08;;;;;;;;;;;44.90;42.90;;;;;;5072337;28;20003;-77
2022/08/04 09:20:46;;;;;;;;;;;43.80;41.60;;;;;;5070431;28;20074;-77
2022/08/04 09:23:14;;;;;;;;;;;43.20;41.70;;;;;;5070144;28;20591;-77
2022/08/04 09:25:45;;;;;;;;;;;43.00;41.60;;;;;;5070299;28;19909;-78
2022/08/04 09:28:20;;;;;;;;;;;43.60;41.30;;;;;;5088038;28;19919;-78
2022/08/04 09:31:05;;;;;;;;;;;44.80;40.50;;;;;;5086658;28;19950;-78
2022/08/04 09:33:41;;;;;;;;;;;46.10;40.30;;;;;;5083908;28;19998;-78
2022/08/04 09:36:23;;;;;;;;;;;47.00;38.10;;;;;;5092762;28;19908;-78
2022/08/04 09:38:58;;;;;;;;;;;47.80;37.30;;;;;;5091768;28;19912;-78
2022/08/04 09:41:31;;;;;;;;;;;47.50;37.20;;;;;;5108582;28;20379;-78
2022/08/04 09:44:00;;;;;;;;;;;46.40;35.30;;;;;;5081689;28;19962;-78
2022/08/04 09:46:28;;;;;;;;;;;45.30;35.80;;;;;;5074669;28;20007;-78
2022/08/04 09:49:13;;;;;;;;;;;44.00;36.30;;;;;;5075590;28;19995;-77
2022/08/04 09:51:42;;;;;;;;;;;43.00;37.40;;;;;;5074631;28;19920;-77
2022/08/04 09:54:27;;;;;;;;;;;42.90;40.20;;;;;;5074216;28;19915;-77
2022/08/04 09:57:13;;;;;;;;;;;44.00;39.30;;;;;;5075735;28;19909;-78
2022/08/04 09:59:52;;;;;;;;;;;43.50;37.30;;;;;;5097630;28;19965;-78
2022/08/04 10:02:20;;;;;;;;;;;42.30;36.80;;;;;;5084167;28;19951;-77
2022/08/04 10:04:46;;;;;;;;;;;41.30;37.80;;;;;;5094384;28;19942;-77
2022/08/04 10:07:18;;;;;;;;;;;40.50;37.40;;;;;;5094304;28;19912;-78
2022/08/04 10:09:47;;;;;;;;;;;40.00;37.20;;;;;;5093380;28;19908;-78
2022/08/04 10:12:33;;;;;;;;;;;39.40;38.50;;;;;;5095017;28;19937;-77
2022/08/04 10:15:10;;;;;;;;;;;38.60;39.10;;;;;;5092953;28;20008;-77
2022/08/04 10:17:35;;;;;;;;;;;37.70;40.90;;;;;;5093552;28;19915;-77
2022/08/04 10:20:07;;;;;;;;;;;37.10;42.20;;;;;;5093519;28;20351;-78
2022/08/04 10:22:38;;;;;;;;;;;36.80;42.30;;;;;;5093356;28;19912;-77
2022/08/04 10:25:20;;;;;;;;;;;36.60;42.50;;;;;;5093032;28;19995;-77
2022/08/04 10:27:49;;;;;;;;;;;36.70;44.20;;;;;;5109736;28;19912;-78
2022/08/04 10:30:16;;;;;;;;;;;37.20;42.50;;;;;;5093069;28;19972;-78
2022/08/04 10:32:51;;;;;;;;;;;37.00;43.10;;;;;;5093280;28;19916;-77
2022/08/04 10:35:21;;;;;;;;;;;36.90;43.20;;;;;;5092516;28;19996;-76
2022/08/04 10:37:57;;;;;;;;;;;36.70;44.40;;;;;;5093091;28;19908;-77
2022/08/04 10:40:36;;;;;;;;;;;36.50;44.50;;;;;;5110238;28;20280;-77
2022/08/04 10:43:01;;;;;;;;;;;36.50;45.30;;;;;;5093048;28;20371;-78
2022/08/04 10:45:40;;;;;;;;;;;36.50;44.00;;;;;;5093182;28;19915;-76
2022/08/04 10:48:06;;;;;;;;;;;36.50;43.40;;;;;;5110169;28;19908;-77
2022/08/04 10:50:35;;;;;;;;;;;36.90;43.40;;;;;;5093012;28;19915;-77
2022/08/04 10:53:12;;;;;;;;;;;37.90;42.20;;;;;;5093327;28;20283;-77
2022/08/04 10:56:01;;;;;;;;;;;39.30;41.50;;;;;;5093172;28;19908;-78
2022/08/04 10:58:35;;;;;;;;;;;40.20;40.40;;;;;;5092831;28;19908;-78
2022/08/04 11:01:03;;;;;;;;;;;39.70;40.10;;;;;;5092519;28;19908;-78
2022/08/04 11:03:34;;;;;;;;;;;39.10;39.30;;;;;;5091970;28;19919;-78
2022/08/04 11:06:02;;;;;;;;;;;38.30;39.90;;;;;;5104609;28;19912;-78
2022/08/04 11:08:41;;;;;;;;;;;37.50;40.50;;;;;;5089143;28;20107;-77
2022/08/04 11:11:23;;;;;;;;;;;37.10;42.90;;;;;;5082639;28;19954;-77
2022/08/04 11:14:00;;;;;;;;;;;36.80;42.70;;;;;;5092639;28;19916;-77
2022/08/04 11:16:37;;;;;;;;;;;36.50;43.80;;;;;;5089974;28;20043;-77
2022/08/04 11:19:16;;;;;;;;;;;36.20;44.70;;;;;;5084440;28;19908;-77
2022/08/04 11:21:43;;;;;;;;;;;36.00;44.90;;;;;;5098721;22;20003;-84
2022/08/04 11:24:18;;;;;;;;;;;35.50;45.40;;;;;;5111232;28;19964;-84
2022/08/04 11:26:58;;;;;;;;;;;35.10;46.20;;;;;;5106355;28;20355;-84
2022/08/04 11:29:27;;;;;;;;;;;34.90;47.00;;;;;;5095926;28;19915;-84
2022/08/04 11:31:57;;;;;;;;;;;34.60;46.60;;;;;;5092891;28;20413;-84
2022/08/04 11:34:24;;;;;;;;;;;34.80;47.10;;;;;;5095431;28;20332;-85
2022/08/04 11:36:49;;;;;;;;;;;35.00;47.30;;;;;;5112517;28;19951;-83
2022/08/04 11:39:22;;;;;;;;;;;35.20;47.00;;;;;;5112607;28;20347;-84
2022/08/04 11:41:55;;;;;;;;;;;35.30;46.80;;;;;;5110405;28;19920;-84
2022/08/04 11:44:44;;;;;;;;;;;35.30;46.70;;;;;;5093643;28;19912;-85
2022/08/04 11:47:29;;;;;;;;;;;35.20;46.80;;;;;;5103843;28;19911;-84
2022/08/04 11:49:58;;;;;;;;;;;34.70;47.90;;;;;;5112718;28;20371;-84
2022/08/04 11:52:25;;;;;;;;;;;34.50;48.40;;;;;;5112248;28;19955;-83
2022/08/04 11:54:52;;;;;;;;;;;34.30;47.20;;;;;;5112369;28;19915;-84
2022/08/04 11:57:18;;;;;;;;;;;34.10;48.60;;;;;;5112012;28;19908;-84
2022/08/04 11:59:44;;;;;;;;;;;34.00;49.50;;;;;;5113342;28;19957;-84
2022/08/04 12:02:28;;;;;;;;;;;33.90;49.90;;;;;;5113611;28;19912;-84
2022/08/04 12:05:00;;;;;;;;;;;33.80;49.70;;;;;;5111501;28;19908;-84
2022/08/04 12:07:32;;;;;;;;;;;34.20;50.10;;;;;;5113165;28;20002;-83
2022/08/04 12:09:58;;;;;;;;;;;34.40;50.20;;;;;;5111961;28;19908;-83
2022/08/04 12:12:59;;;;;;;;;;;34.40;51.20;;;;;;5112014;28;19915;-84
2022/08/04 12:15:46;;;;;;;;;;;34.60;51.30;;;;;;5030547;28;19916;-83
2022/08/04 12:18:21;;;;;;;;;;;34.50;51.50;;;;;;5106184;28;19908;-84
2022/08/04 12:20:48;;;;;;;;;;;34.30;51.30;;;;;;5112143;28;19914;-83
2022/08/04 12:23:16;;;;;;;;;;;34.20;51.90;;;;;;5111767;28;19916;-83
2022/08/04 12:25:45;;;;;;;;;;;34.20;52.70;;;;;;5111631;28;19953;-84
2022/08/04 12:28:23;;;;;;;;;;;34.20;52.30;;;;;;5111599;28;19912;-82
2022/08/04 12:30:51;;;;;;;;;;;34.30;53.10;;;;;;5111524;28;20359;-84
2022/08/04 12:33:22;;;;;;;;;;;34.30;53.20;;;;;;5111745;28;20517;-84
2022/08/04 12:35:57;;;;;;;;;;;34.30;51.40;;;;;;5111436;28;19908;-83
2022/08/04 12:38:25;;;;;;;;;;;34.20;50.90;;;;;;5111645;28;20340;-84
2022/08/04 12:40:52;;;;;;;;;;;34.10;50.60;;;;;;5111603;28;19965;-84
2022/08/04 12:43:28;;;;;;;;;;;34.10;50.10;;;;;;5111564;28;20028;-84
2022/08/04 12:46:02;;;;;;;;;;;33.90;50.70;;;;;;5111257;28;19915;-84
2022/08/04 12:48:29;;;;;;;;;;;34.20;51.80;;;;;;5111492;28;20347;-83
2022/08/04 12:50:56;;;;;;;;;;;34.60;51.30;;;;;;5112915;28;19915;-84
2022/08/04 12:53:26;;;;;;;;;;;34.80;50.50;;;;;;5111629;28;19999;-84
2022/08/04 12:55:52;;;;;;;;;;;35.00;50.80;;;;;;5111782;28;20006;-84
2022/08/04 12:58:20;;;;;;;;;;;35.30;50.40;;;;;;5111405;28;19908;-84
2022/08/04 13:00:53;;;;;;;;;;;35.50;50.70;;;;;;5112720;28;19907;-83
2022/08/04 13:03:19;;;;;;;;;;;35.60;49.10;;;;;;5111579;28;19912;-84
2022/08/04 13:05:45;;;;;;;;;;;35.50;49.60;;;;;;5111268;28;19916;-84
2022/08/04 13:08:11;;;;;;;;;;;35.40;49.10;;;;;;5111155;28;19916;-84
2022/08/04 13:10:43;;;;;;;;;;;35.50;51.30;;;;;;5111589;28;19942;-84
2022/08/04 13:13:16;;;;;;;;;;;35.20;49.90;;;;;;5107717;28;20394;-86
2022/08/04 13:15:42;;;;;;;;;;;35.10;50.50;;;;;;5093280;28;19908;-85
2022/08/04 13:18:09;;;;;;;;;;;34.80;51.00;;;;;;5114702;28;20286;-87
2022/08/04 13:20:36;;;;;;;;;;;34.50;50.90;;;;;;5114664;28;20305;-87
2022/08/04 13:23:13;;;;;;;;;;;34.40;51.60;;;;;;5114613;28;19920;-87
2022/08/04 13:25:45;;;;;;;;;;;34.50;52.10;;;;;;5114339;28;19908;-87
2022/08/04 13:28:12;;;;;;;;;;;34.60;52.80;;;;;;5114431;28;19907;-87
2022/08/04 13:30:38;;;;;;;;;;;34.80;55.10;;;;;;5115020;28;19988;-87
2022/08/04 13:33:04;;;;;;;;;;;34.90;53.00;;;;;;5114764;28;19943;-88
2022/08/04 13:35:31;;;;;;;;;;;34.90;53.30;;;;;;5114432;28;19912;-87
2022/08/04 13:37:57;;;;;;;;;;;35.10;54.30;;;;;;5114449;28;19908;-89
2022/08/04 13:40:24;;;;;;;;;;;35.50;55.10;;;;;;5114257;28;19912;-89
2022/08/04 13:42:51;;;;;;;;;;;35.80;54.00;;;;;;5115774;28;19916;-87
2022/08/04 13:45:21;;;;;;;;;;;35.90;53.00;;;;;;5114056;28;19908;-88
2022/08/04 13:47:48;;;;;;;;;;;35.60;52.60;;;;;;5114450;28;19911;-87
2022/08/04 13:50:26;;;;;;;;;;;35.60;53.70;;;;;;5113946;28;19947;-89
2022/08/04 13:52:53;;;;;;;;;;;35.40;53.10;;;;;;5115614;28;19915;-89
2022/08/04 13:55:18;;;;;;;;;;;35.20;53.30;;;;;;5114167;28;20344;-88
2022/08/04 13:57:45;;;;;;;;;;;35.20;52.60;;;;;;5114167;28;19916;-90
2022/08/04 14:00:11;;;;;;;;;;;35.10;53.30;;;;;;5115318;28;19912;-87
2022/08/04 14:02:40;;;;;;;;;;;35.10;53.30;;;;;;5113938;28;19912;-87
2022/08/04 14:05:13;;;;;;;;;;;34.90;52.60;;;;;;5113899;28;19994;-87
2022/08/04 14:07:44;;;;;;;;;;;34.90;52.30;;;;;;5113674;28;19907;-85
2022/08/04 14:10:10;;;;;;;;;;;34.80;53.70;;;;;;5114882;28;19911;-85
2022/08/04 14:12:43;;;;;;;;;;;34.70;54.00;;;;;;5113718;28;19908;-86
2022/08/04 14:15:27;;;;;;;;;;;34.50;53.80;;;;;;5113743;28;19907;-87
2022/08/04 14:17:53;;;;;;;;;;;34.30;54.50;;;;;;5113187;28;19908;-87
2022/08/04 14:20:18;;;;;;;;;;;34.20;54.70;;;;;;5114650;28;19931;-86
2022/08/04 14:22:44;;;;;;;;;;;34.10;55.00;;;;;;5106951;28;19920;-86
2022/08/04 14:25:14;;;;;;;;;;;34.00;56.90;;;;;;5092957;28;19943;-86
2022/08/04 14:27:40;;;;;;;;;;;33.80;55.80;;;;;;5093593;28;19908;-87
2022/08/04 14:30:06;;;;;;;;;;;33.60;54.20;;;;;;5093849;28;19908;-90
2022/08/04 14:32:31;;;;;;;;;;;33.50;54.90;;;;;;5093019;28;19915;-86
2022/08/04 14:34:57;;;;;;;;;;;33.30;54.60;;;;;;5093150;28;19908;-86
2022/08/04 14:37:22;;;;;;;;;;;33.00;54.70;;;;;;5092676;28;19916;-87
2022/08/04 14:39:50;;;;;;;;;;;33.00;56.50;;;;;;5092702;28;19908;-86
2022/08/04 14:42:15;;;;;;;;;;;33.00;55.00;;;;;;5092730;28;19924;-86